Raymond Croze — FNWX — position and weather

sailwx.info

Track history (hours):
 
Tides and Currents Weather Stations Pressure Air Temp Water Temp Dewpoint Dewpoint Depression Visibility Wind Speed Wind Dir Waves Ship Positions

Raymond Croze

Last reported at 2015-May-03 21:18 UTC. Time now 2015-May-03 22:56 UTC.
Position N 35°50' W 006°02'.

Length 107 m; beam 18 m.

Type: Ship. MMSI: 226290000.

Date/timePositionNaut miles runAvg speedWind from/ knotsBaromVisibWave heightAir tempDewpointWater temp
2015-May-03 21:18N 35°50' W 006°02'1 0.1
2015-May-03 10:23N 35°50' W 006°03'0 0.0
2015-May-03 09:26N 35°50' W 006°03'  
2015-Apr-27 03:33N 36°01' W 005°23'10511.5
2015-Apr-26 18:24N 36°18' W 003°14'1112.1
2015-Apr-26 17:31N 36°20' W 003°01'1212.0
2015-Apr-26 16:33N 36°22' W 002°47'1212.3
2015-Apr-26 15:33N 36°23' W 002°32'1212.0
2015-Apr-26 14:32N 36°25' W 002°17'1211.6
2015-Apr-26 13:30N 36°31' W 002°04'5911.9
2015-Apr-26 08:33N 37°10' W 001°08'1212.0
2015-Apr-26 07:33N 37°18' W 000°57'1212.1
2015-Apr-26 06:33N 37°26' W 000°46'1312.5
2015-Apr-26 05:33N 37°34' W 000°34'1313.4
2015-Apr-26 04:33N 37°44' W 000°22'1313.3
2015-Apr-26 03:34N 37°54' W 000°11'1313.3
2015-Apr-26 02:33N 38°04' E 000°00'1413.4
2015-Apr-26 01:31N 38°14' E 000°12'1513.3
2015-Apr-26 00:24N 38°25' E 000°25'1113.0
2015-Apr-25 23:33N 38°33' E 000°34'1413.1
2015-Apr-25 22:30N 38°44' E 000°46'1213.0
2015-Apr-25 21:34N 38°53' E 000°57'1312.6
2015-Apr-25 20:33N 39°02' E 001°08'1312.4
2015-Apr-25 19:32N 39°11' E 001°19'1212.6
2015-Apr-25 18:33N 39°21' E 001°29'1313.2
2015-Apr-25 17:33N 39°30' E 001°41'1412.9
2015-Apr-25 16:29N 39°40' E 001°53'1111.5
2015-Apr-25 15:33N 39°49' E 002°02'1312.5
2015-Apr-25 14:33N 39°58' E 002°13'1212.3
2015-Apr-25 13:33N 40°07' E 002°24'1212.2
2015-Apr-25 12:33N 40°16' E 002°35'1211.5
2015-Apr-25 11:33N 40°24' E 002°45'1312.5
2015-Apr-25 10:33N 40°34' E 002°56'1312.8
2015-Apr-25 09:33N 40°43' E 003°07'1312.7
2015-Apr-25 08:33N 40°53' E 003°18'1412.9
2015-Apr-25 07:30N 41°03' E 003°30'1913.1
2015-Apr-25 06:04N 41°17' E 003°47'3712.5
2015-Apr-25 03:07N 41°44' E 004°20'6412.8
2015-Apr-24 22:10N 42°31' E 005°18'912.9
2015-Apr-24 21:27N 42°38' E 005°26'1112.6
2015-Apr-24 20:33N 42°46' E 005°37'1612.7
2015-Apr-24 19:17N 42°58' E 005°52'811.2
2015-Apr-24 18:33N 43°05' E 005°58'4 3.9
2015-Apr-24 17:33N 43°06' E 005°53'0 0.0
2015-Apr-24 16:32N 43°06' E 005°53'0 0.0
2015-Apr-24 15:30N 43°06' E 005°53'0 0.0
2015-Apr-24 14:32N 43°06' E 005°53'0 0.0
2015-Apr-24 13:33N 43°06' E 005°53'0 0.0
2015-Apr-24 12:33N 43°06' E 005°53'0 0.0
2015-Apr-24 11:33N 43°06' E 005°53'0 0.0
2015-Apr-24 10:33N 43°06' E 005°53'0 0.0
2015-Apr-24 09:33N 43°06' E 005°53'0 0.0
2015-Apr-24 08:33N 43°06' E 005°53'0 0.0
2015-Apr-24 07:33N 43°06' E 005°53'0 0.0
2015-Apr-24 06:33N 43°06' E 005°53'0 0.0
2015-Apr-24 05:33N 43°06' E 005°53'0 0.0
2015-Apr-24 04:33N 43°06' E 005°53'3 3.0
2015-Apr-24 03:33N 43°05' E 005°57'6 6.2
2015-Apr-24 02:33N 42°59' E 005°54'5216.7
2015-Apr-23 23:25N 42°10' E 005°30'2211.7
2015-Apr-23 21:31N 42°31' E 005°17'  
Track history (hours):
 
Tides and Currents Weather Stations Pressure Air Temp Water Temp Dewpoint Dewpoint Depression Visibility Wind Speed Wind Dir Waves Ship Positions

Raymond Croze

Last reported at 2015-May-03 21:18 UTC. Time now 2015-May-03 22:56 UTC.
Position N 35°50' W 006°02'.

Length 107 m; beam 18 m.

Type: Ship. MMSI: 226290000.

Date/timePositionNaut miles runAvg speedWind from/ knotsBaromVisibWave heightAir tempDewpointWater temp
2015-May-03 21:18N 35°50' W 006°02'1 0.1
2015-May-03 10:23N 35°50' W 006°03'0 0.0
2015-May-03 09:26N 35°50' W 006°03'  
2015-Apr-27 03:33N 36°01' W 005°23'10511.5
2015-Apr-26 18:24N 36°18' W 003°14'1112.1
2015-Apr-26 17:31N 36°20' W 003°01'1212.0
2015-Apr-26 16:33N 36°22' W 002°47'1212.3
2015-Apr-26 15:33N 36°23' W 002°32'1212.0
2015-Apr-26 14:32N 36°25' W 002°17'1211.6
2015-Apr-26 13:30N 36°31' W 002°04'5911.9
2015-Apr-26 08:33N 37°10' W 001°08'1212.0
2015-Apr-26 07:33N 37°18' W 000°57'1212.1
2015-Apr-26 06:33N 37°26' W 000°46'1312.5
2015-Apr-26 05:33N 37°34' W 000°34'1313.4
2015-Apr-26 04:33N 37°44' W 000°22'1313.3
2015-Apr-26 03:34N 37°54' W 000°11'1313.3
2015-Apr-26 02:33N 38°04' E 000°00'1413.4
2015-Apr-26 01:31N 38°14' E 000°12'1513.3
2015-Apr-26 00:24N 38°25' E 000°25'1113.0
2015-Apr-25 23:33N 38°33' E 000°34'1413.1
2015-Apr-25 22:30N 38°44' E 000°46'1213.0
2015-Apr-25 21:34N 38°53' E 000°57'1312.6
2015-Apr-25 20:33N 39°02' E 001°08'1312.4
2015-Apr-25 19:32N 39°11' E 001°19'1212.6
2015-Apr-25 18:33N 39°21' E 001°29'1313.2
2015-Apr-25 17:33N 39°30' E 001°41'1412.9
2015-Apr-25 16:29N 39°40' E 001°53'1111.5
2015-Apr-25 15:33N 39°49' E 002°02'1312.5
2015-Apr-25 14:33N 39°58' E 002°13'1212.3
2015-Apr-25 13:33N 40°07' E 002°24'1212.2
2015-Apr-25 12:33N 40°16' E 002°35'1211.5
2015-Apr-25 11:33N 40°24' E 002°45'1312.5
2015-Apr-25 10:33N 40°34' E 002°56'1312.8
2015-Apr-25 09:33N 40°43' E 003°07'1312.7
2015-Apr-25 08:33N 40°53' E 003°18'1412.9
2015-Apr-25 07:30N 41°03' E 003°30'1913.1
2015-Apr-25 06:04N 41°17' E 003°47'3712.5
2015-Apr-25 03:07N 41°44' E 004°20'6412.8
2015-Apr-24 22:10N 42°31' E 005°18'912.9
2015-Apr-24 21:27N 42°38' E 005°26'1112.6
2015-Apr-24 20:33N 42°46' E 005°37'1612.7
2015-Apr-24 19:17N 42°58' E 005°52'811.2
2015-Apr-24 18:33N 43°05' E 005°58'4 3.9
2015-Apr-24 17:33N 43°06' E 005°53'0 0.0
2015-Apr-24 16:32N 43°06' E 005°53'0 0.0
2015-Apr-24 15:30N 43°06' E 005°53'0 0.0
2015-Apr-24 14:32N 43°06' E 005°53'0 0.0
2015-Apr-24 13:33N 43°06' E 005°53'0 0.0
2015-Apr-24 12:33N 43°06' E 005°53'0 0.0
2015-Apr-24 11:33N 43°06' E 005°53'0 0.0
2015-Apr-24 10:33N 43°06' E 005°53'0 0.0
2015-Apr-24 09:33N 43°06' E 005°53'0 0.0
2015-Apr-24 08:33N 43°06' E 005°53'0 0.0
2015-Apr-24 07:33N 43°06' E 005°53'0 0.0
2015-Apr-24 06:33N 43°06' E 005°53'0 0.0
2015-Apr-24 05:33N 43°06' E 005°53'0 0.0
2015-Apr-24 04:33N 43°06' E 005°53'3 3.0
2015-Apr-24 03:33N 43°05' E 005°57'6 6.2
2015-Apr-24 02:33N 42°59' E 005°54'5216.7
2015-Apr-23 23:25N 42°10' E 005°30'2211.7
2015-Apr-23 21:31N 42°31' E 005°17'  

Dump ship's entire track history